createdAt,value
2018-10-17T00:02:02.965Z,8.50
2018-10-17T00:04:37.620Z,8.50
2018-10-17T00:07:12.365Z,10.00
2018-10-17T00:09:46.828Z,7.43
2018-10-17T00:12:21.371Z,8.43
2018-10-17T00:14:55.986Z,6.90
2018-10-17T00:17:30.628Z,9.57
2018-10-17T00:20:05.881Z,8.93
2018-10-17T00:22:40.235Z,8.17
2018-10-17T00:25:14.827Z,6.87
2018-10-17T00:27:49.365Z,7.63
2018-10-17T00:30:24.166Z,7.37
2018-10-17T00:32:58.993Z,6.87
2018-10-17T00:35:34.009Z,9.50
2018-10-17T00:38:08.503Z,7.93
2018-10-17T00:40:43.122Z,7.33
2018-10-17T00:43:31.213Z,8.17
2018-10-17T00:46:06.003Z,9.53
2018-10-17T00:48:40.659Z,9.47
2018-10-17T00:51:15.283Z,6.47
2018-10-17T00:53:50.332Z,9.67
2018-10-17T00:56:24.876Z,7.03
2018-10-17T00:59:07.858Z,6.30
2018-10-17T01:01:42.332Z,6.83
2018-10-17T01:04:16.999Z,7.57
2018-10-17T01:06:51.922Z,6.83
2018-10-17T01:09:26.601Z,7.60
2018-10-17T01:12:01.254Z,6.53
2018-10-17T01:14:35.951Z,6.23
2018-10-17T01:17:10.650Z,5.33
2018-10-17T01:19:45.217Z,8.73
2018-10-17T01:22:19.832Z,5.80
2018-10-17T01:24:54.418Z,5.70
2018-10-17T01:27:29.185Z,5.83
2018-10-17T01:30:03.690Z,7.13
2018-10-17T01:32:38.603Z,7.27
2018-10-17T01:35:13.233Z,5.20
2018-10-17T01:38:06.382Z,7.53
2018-10-17T01:40:40.901Z,6.00
2018-10-17T01:43:15.490Z,5.83
2018-10-17T01:45:50.164Z,6.23
2018-10-17T01:48:24.590Z,8.83
2018-10-17T01:51:00.006Z,8.00
2018-10-17T01:53:34.657Z,5.47
2018-10-17T01:56:09.172Z,6.60
2018-10-17T01:58:43.725Z,5.80
2018-10-17T02:01:18.381Z,5.77
2018-10-17T02:03:52.957Z,6.77
2018-10-17T02:06:27.530Z,6.17
2018-10-17T02:09:02.236Z,5.43
2018-10-17T02:11:37.396Z,7.00
2018-10-17T02:14:11.900Z,7.33
2018-10-17T02:16:46.940Z,6.87
2018-10-17T02:19:21.448Z,6.67
2018-10-17T02:21:56.120Z,4.90
2018-10-17T02:24:30.673Z,5.30
2018-10-17T02:27:05.405Z,4.63
2018-10-17T02:29:40.111Z,5.23
2018-10-17T02:32:14.756Z,4.43
2018-10-17T02:34:54.689Z,4.40
2018-10-17T02:37:29.285Z,6.33
2018-10-17T02:40:04.033Z,4.27
2018-10-17T02:42:46.030Z,4.73
2018-10-17T02:45:20.737Z,4.77
2018-10-17T02:47:55.546Z,6.03
2018-10-17T02:50:30.139Z,5.90
2018-10-17T02:53:04.971Z,5.93
2018-10-17T02:55:39.476Z,5.13
2018-10-17T02:58:14.135Z,4.70
2018-10-17T03:00:48.628Z,4.50
2018-10-17T03:03:23.276Z,4.77
2018-10-17T03:05:58.710Z,6.13
2018-10-17T03:08:33.460Z,7.67
2018-10-17T03:11:13.237Z,6.00
2018-10-17T03:13:47.829Z,5.57
2018-10-17T03:16:23.261Z,5.67
2018-10-17T03:18:58.431Z,5.13
2018-10-17T03:21:33.437Z,5.80
2018-10-17T03:24:08.442Z,4.87
2018-10-17T03:26:43.561Z,4.90
2018-10-17T03:29:18.798Z,5.10
2018-10-17T03:31:53.482Z,5.43
2018-10-17T03:34:28.164Z,4.70
2018-10-17T03:37:21.876Z,6.13
2018-10-17T03:39:56.526Z,5.23
2018-10-17T03:42:31.335Z,4.73
2018-10-17T03:45:07.585Z,5.67
2018-10-17T03:47:53.688Z,4.93
2018-10-17T03:50:28.276Z,5.60
2018-10-17T03:53:04.132Z,5.93
2018-10-17T03:55:39.125Z,5.47
2018-10-17T03:58:14.225Z,5.13
2018-10-17T04:00:49.704Z,5.80
2018-10-17T04:03:24.292Z,4.50
2018-10-17T04:05:59.170Z,5.13
2018-10-17T04:08:34.173Z,5.23
2018-10-17T04:11:08.762Z,6.17
2018-10-17T04:13:43.697Z,6.37
2018-10-17T04:16:18.410Z,4.57
2018-10-17T04:18:53.131Z,5.33
2018-10-17T04:21:27.767Z,4.87
2018-10-17T04:24:03.537Z,6.07
2018-10-17T04:26:37.944Z,6.37
2018-10-17T04:29:12.933Z,4.90
2018-10-17T04:31:48.287Z,4.90
2018-10-17T04:34:22.944Z,5.33
2018-10-17T04:36:58.434Z,5.80
2018-10-17T04:39:33.244Z,6.20
2018-10-17T04:42:08.270Z,6.30
2018-10-17T04:44:42.956Z,7.90
2018-10-17T04:47:19.199Z,7.60
2018-10-17T04:49:54.877Z,6.17
2018-10-17T04:52:29.478Z,7.10
2018-10-17T04:55:04.142Z,7.00
2018-10-17T04:57:38.822Z,5.57
2018-10-17T05:00:13.950Z,5.53
2018-10-17T05:02:48.378Z,5.07
2018-10-17T05:05:23.095Z,7.17
2018-10-17T05:07:57.642Z,6.40
2018-10-17T05:10:32.472Z,4.77
2018-10-17T05:13:08.338Z,5.47
2018-10-17T05:15:42.951Z,4.80
2018-10-17T05:18:17.422Z,6.57
2018-10-17T05:20:52.414Z,6.33
2018-10-17T05:23:26.848Z,6.27
2018-10-17T05:26:01.506Z,6.70
2018-10-17T05:28:36.269Z,5.40
2018-10-17T05:31:11.307Z,5.80
2018-10-17T05:33:45.760Z,6.83
2018-10-17T05:36:20.441Z,6.93
2018-10-17T05:38:55.407Z,9.20
2018-10-17T05:41:29.953Z,6.57
2018-10-17T05:47:12.449Z,9.67
2018-10-17T05:49:46.920Z,5.70
2018-10-17T05:52:21.713Z,9.00
2018-10-17T05:54:56.753Z,6.80
2018-10-17T05:57:31.540Z,6.00
2018-10-17T06:00:07.048Z,5.87
2018-10-17T06:02:41.474Z,5.40
2018-10-17T06:05:16.338Z,7.27
2018-10-17T06:07:50.832Z,6.53
2018-10-17T06:10:25.839Z,5.80
2018-10-17T06:13:01.030Z,6.23
2018-10-17T06:15:35.808Z,6.27
2018-10-17T06:18:10.868Z,9.13
2018-10-17T06:20:45.503Z,6.03
2018-10-17T06:23:28.052Z,6.83
2018-10-17T06:26:14.392Z,6.33
2018-10-17T06:28:49.344Z,6.40
2018-10-17T06:31:24.040Z,7.90
2018-10-17T06:33:59.084Z,7.30
2018-10-17T06:36:33.700Z,6.77
2018-10-17T06:39:10.735Z,9.77
2018-10-17T06:41:45.138Z,9.83
2018-10-17T06:44:19.828Z,7.70
2018-10-17T06:46:54.623Z,6.67
2018-10-17T06:49:29.367Z,10.27
2018-10-17T06:55:02.965Z,6.57
2018-10-17T06:57:38.056Z,7.43
2018-10-17T07:00:12.625Z,6.97
2018-10-17T07:02:48.254Z,6.67
2018-10-17T07:05:22.824Z,6.60
2018-10-17T07:07:57.440Z,8.30
2018-10-17T07:10:32.881Z,6.40
2018-10-17T07:13:29.681Z,6.90
2018-10-17T07:16:04.249Z,7.67
2018-10-17T07:18:39.068Z,6.90
2018-10-17T07:21:13.658Z,7.20
2018-10-17T07:23:48.236Z,5.50
2018-10-17T07:26:22.820Z,6.70
2018-10-17T07:28:57.466Z,6.60
2018-10-17T07:31:32.325Z,6.90
2018-10-17T07:34:06.964Z,5.77
2018-10-17T07:36:42.162Z,8.00
2018-10-17T07:39:16.850Z,8.47
2018-10-17T07:41:51.535Z,8.70
2018-10-17T07:44:26.358Z,6.53
2018-10-17T07:47:01.321Z,6.50
2018-10-17T07:49:36.082Z,7.30
2018-10-17T07:52:11.080Z,7.50
2018-10-17T07:54:45.527Z,8.63
2018-10-17T07:57:20.875Z,7.53
2018-10-17T07:59:55.693Z,8.67
2018-10-17T08:02:30.381Z,9.53
2018-10-17T08:05:04.952Z,7.20
2018-10-17T08:07:39.582Z,10.90
2018-10-17T08:10:14.513Z,7.27
2018-10-17T08:12:49.478Z,11.43
2018-10-17T08:15:26.241Z,8.50
2018-10-17T08:18:00.932Z,7.67
2018-10-17T08:20:35.669Z,7.07
2018-10-17T08:23:10.940Z,8.97
2018-10-17T08:25:45.696Z,7.90
2018-10-17T08:28:20.326Z,8.77
2018-10-17T08:30:55.311Z,7.00
2018-10-17T08:33:29.772Z,7.27
2018-10-17T08:36:04.426Z,7.77
2018-10-17T08:38:39.589Z,6.97
2018-10-17T08:41:14.577Z,10.67
2018-10-17T08:43:49.454Z,8.53
2018-10-17T08:46:26.167Z,7.83
2018-10-17T08:49:01.061Z,9.20
2018-10-17T08:54:36.749Z,10.13
2018-10-17T08:57:11.558Z,8.20
2018-10-17T08:59:46.712Z,7.80
2018-10-17T09:02:21.272Z,8.40
2018-10-17T09:04:56.260Z,7.83
2018-10-17T09:07:37.701Z,11.13
2018-10-17T09:10:12.585Z,8.83
2018-10-17T09:12:47.109Z,8.70
2018-10-17T09:15:21.709Z,7.70
2018-10-17T09:17:56.718Z,8.97
2018-10-17T09:20:31.425Z,6.93
2018-10-17T09:23:06.721Z,7.53
2018-10-17T09:25:41.510Z,7.90
2018-10-17T09:28:16.662Z,11.40
2018-10-17T09:30:51.533Z,7.60
2018-10-17T09:33:26.055Z,10.03
2018-10-17T09:36:00.635Z,8.77
2018-10-17T09:38:35.924Z,6.87
2018-10-17T09:41:10.701Z,8.53
2018-10-17T09:43:45.333Z,7.73
2018-10-17T09:46:19.965Z,8.87
2018-10-17T09:48:54.636Z,7.37
2018-10-17T09:51:29.245Z,9.87
2018-10-17T09:54:03.630Z,6.47
2018-10-17T09:56:38.266Z,11.97
2018-10-17T09:59:12.861Z,9.90
2018-10-17T10:01:51.532Z,7.80
2018-10-17T10:04:29.317Z,8.80
2018-10-17T10:07:03.839Z,7.43
2018-10-17T10:09:38.432Z,8.53
2018-10-17T10:12:13.292Z,9.00
2018-10-17T10:14:47.864Z,8.37
2018-10-17T10:17:22.586Z,8.10
2018-10-17T10:19:57.725Z,8.83
2018-10-17T10:22:32.221Z,6.77
2018-10-17T10:25:06.971Z,6.67
2018-10-17T10:27:41.496Z,10.70
2018-10-17T10:30:16.128Z,7.90
2018-10-17T10:32:51.861Z,8.93
2018-10-17T10:35:26.996Z,8.73
2018-10-17T10:38:01.655Z,7.30
2018-10-17T10:40:36.490Z,8.37
2018-10-17T10:46:09.776Z,9.20
2018-10-17T10:54:42.636Z,8.53
2018-10-17T10:57:17.354Z,10.00
2018-10-17T10:59:52.280Z,9.70
2018-10-17T11:02:27.057Z,10.27
2018-10-17T11:05:01.950Z,11.90
2018-10-17T11:07:36.758Z,9.30
2018-10-17T11:10:11.286Z,10.30
2018-10-17T11:12:45.847Z,10.70
2018-10-17T11:15:20.536Z,8.07
2018-10-17T11:17:55.294Z,11.23
2018-10-17T11:20:29.848Z,13.10
2018-10-17T11:23:04.532Z,10.57
2018-10-17T11:25:39.216Z,12.00
2018-10-17T11:28:14.274Z,10.07
2018-10-17T11:33:53.893Z,10.13
2018-10-17T11:36:28.567Z,11.23
2018-10-17T11:39:03.290Z,12.87
2018-10-17T11:41:38.007Z,9.60
2018-10-17T11:44:12.629Z,9.03
2018-10-17T11:46:47.148Z,8.50
2018-10-17T11:49:21.866Z,10.10
2018-10-17T11:51:57.145Z,12.23
2018-10-17T11:54:31.950Z,11.33
2018-10-17T11:57:06.565Z,8.30
2018-10-17T11:59:41.560Z,12.30
2018-10-17T12:02:16.241Z,12.87
2018-10-17T12:04:51.161Z,10.30
2018-10-17T12:07:25.921Z,9.60
2018-10-17T12:10:00.781Z,9.93
2018-10-17T12:12:35.451Z,11.23
2018-10-17T12:15:12.469Z,8.27
2018-10-17T12:17:46.885Z,10.20
2018-10-17T12:20:21.529Z,9.43
2018-10-17T12:22:56.545Z,10.87
2018-10-17T12:25:31.339Z,9.17
2018-10-17T12:28:06.132Z,11.77
2018-10-17T12:30:40.969Z,10.77
2018-10-17T12:33:15.509Z,10.90
2018-10-17T12:35:50.097Z,16.90
2018-10-17T12:38:24.791Z,12.73
2018-10-17T12:40:59.828Z,11.07
2018-10-17T12:43:34.293Z,10.37
2018-10-17T12:46:08.833Z,9.30
2018-10-17T12:48:43.475Z,8.87
2018-10-17T12:51:18.080Z,12.63
2018-10-17T12:53:52.653Z,11.77
2018-10-17T12:56:27.246Z,8.43
2018-10-17T12:59:01.947Z,12.23
2018-10-17T13:01:36.361Z,9.60
2018-10-17T13:04:11.084Z,12.03
2018-10-17T13:06:45.600Z,13.13
2018-10-17T13:09:20.249Z,11.67
2018-10-17T13:11:55.158Z,11.00
2018-10-17T13:14:30.092Z,10.07
2018-10-17T13:17:04.796Z,10.70
2018-10-17T13:19:39.756Z,10.83
2018-10-17T13:22:14.988Z,11.83
2018-10-17T13:24:49.449Z,10.10
2018-10-17T13:27:24.124Z,10.70
2018-10-17T13:29:58.921Z,12.33
2018-10-17T13:32:33.799Z,9.57
2018-10-17T13:35:08.528Z,13.67
2018-10-17T13:37:42.990Z,10.87
2018-10-17T13:40:17.566Z,9.97
2018-10-17T13:42:52.185Z,10.90
2018-10-17T13:45:26.605Z,13.50
2018-10-17T13:48:01.360Z,12.40
2018-10-17T13:50:36.188Z,12.93
2018-10-17T13:53:10.857Z,11.93
2018-10-17T13:56:03.513Z,14.20
2018-10-17T13:58:38.032Z,11.17
2018-10-17T14:01:12.678Z,10.43
2018-10-17T14:03:47.536Z,10.80
2018-10-17T14:06:22.168Z,11.80
2018-10-17T14:08:57.057Z,12.10
2018-10-17T14:11:31.792Z,12.57
2018-10-17T14:14:06.720Z,11.50
2018-10-17T14:16:41.254Z,11.13
2018-10-17T14:19:15.897Z,9.23
2018-10-17T14:21:50.384Z,12.23
2018-10-17T14:24:25.104Z,10.63
2018-10-17T14:26:59.701Z,10.33
2018-10-17T14:29:34.268Z,12.57
2018-10-17T14:32:09.084Z,10.47
2018-10-17T14:34:43.897Z,14.83
2018-10-17T14:37:18.940Z,10.43
2018-10-17T14:39:53.448Z,13.13
2018-10-17T14:42:28.044Z,13.90
2018-10-17T14:45:02.753Z,11.37
2018-10-17T14:47:37.953Z,11.03
2018-10-17T14:50:12.696Z,12.17
2018-10-17T14:52:47.272Z,11.10
2018-10-17T14:55:21.961Z,13.23
2018-10-17T14:57:56.516Z,14.73
2018-10-17T15:00:31.287Z,14.37
2018-10-17T15:03:05.928Z,13.63
2018-10-17T15:05:40.604Z,13.83
2018-10-17T15:08:15.119Z,16.43
2018-10-17T15:10:50.383Z,15.60
2018-10-17T15:13:24.704Z,17.90
2018-10-17T15:15:59.541Z,19.50
2018-10-17T15:18:34.130Z,18.50
2018-10-17T15:21:08.756Z,16.70
2018-10-17T15:23:43.266Z,18.43
2018-10-17T15:26:18.028Z,17.60
2018-10-17T15:28:52.428Z,17.00
2018-10-17T15:31:27.711Z,21.00
2018-10-17T15:34:02.417Z,16.43
2018-10-17T15:36:37.001Z,19.53
2018-10-17T15:39:12.594Z,15.57
2018-10-17T15:41:47.307Z,22.33
2018-10-17T15:47:33.868Z,17.90
2018-10-17T15:50:08.505Z,17.10
2018-10-17T15:52:53.358Z,20.07
2018-10-17T15:55:38.309Z,16.60
2018-10-17T15:58:13.044Z,21.03
2018-10-17T16:01:00.973Z,19.70
2018-10-17T16:06:57.529Z,17.47
2018-10-17T16:09:38.722Z,19.57
2018-10-17T16:12:15.185Z,18.27
2018-10-17T16:14:49.857Z,18.03
2018-10-17T16:17:24.433Z,22.17
2018-10-17T16:20:01.889Z,21.17
2018-10-17T16:22:36.658Z,21.97
2018-10-17T16:25:11.177Z,20.60
2018-10-17T16:27:45.888Z,21.57
2018-10-17T16:30:21.458Z,18.93
2018-10-17T16:32:56.235Z,21.10
2018-10-17T16:35:30.739Z,20.27
2018-10-17T16:38:05.624Z,22.10
2018-10-17T16:40:40.822Z,23.70
2018-10-17T16:43:15.415Z,19.40
2018-10-17T16:45:49.948Z,25.87
2018-10-17T16:48:31.817Z,21.13
2018-10-17T16:51:06.677Z,23.17
2018-10-17T16:53:41.323Z,23.27
2018-10-17T16:56:16.913Z,22.13
2018-10-17T16:58:51.721Z,23.13
2018-10-17T17:01:26.463Z,26.03
2018-10-17T17:04:01.158Z,21.00
2018-10-17T17:06:35.900Z,26.33
2018-10-17T17:09:11.507Z,31.53
2018-10-17T17:11:45.982Z,28.60
2018-10-17T17:14:20.567Z,26.07
2018-10-17T17:16:55.208Z,25.63
2018-10-17T17:19:30.365Z,24.63
2018-10-17T17:22:05.120Z,25.97
2018-10-17T17:24:39.753Z,26.53
2018-10-17T17:27:15.637Z,27.63
2018-10-17T17:29:50.413Z,28.20
2018-10-17T17:32:24.997Z,27.40
2018-10-17T17:34:59.593Z,31.43
2018-10-17T17:37:34.190Z,30.97
2018-10-17T17:40:10.053Z,30.43
2018-10-17T17:43:09.070Z,34.53
2018-10-17T17:45:44.614Z,36.80
2018-10-17T17:48:31.550Z,32.63
2018-10-17T17:51:07.178Z,35.27
2018-10-17T17:53:41.560Z,29.63
2018-10-17T17:56:16.738Z,31.07
2018-10-17T17:58:51.476Z,31.40
2018-10-17T18:01:26.099Z,32.07
2018-10-17T18:04:00.848Z,33.17
2018-10-17T18:06:35.563Z,32.23
2018-10-17T18:09:11.869Z,32.20
2018-10-17T18:11:46.389Z,32.73
2018-10-17T18:14:20.939Z,31.33
2018-10-17T18:16:55.502Z,30.70
2018-10-17T18:19:33.909Z,30.77
2018-10-17T18:22:08.467Z,30.93
2018-10-17T18:24:43.109Z,34.60
2018-10-17T18:27:17.741Z,29.27
2018-10-17T18:29:52.404Z,39.73
2018-10-17T18:32:27.071Z,33.87
2018-10-17T18:35:01.732Z,32.90
2018-10-17T18:37:36.852Z,34.48
2018-10-17T18:40:12.467Z,34.00
2018-10-17T18:42:47.442Z,32.77
2018-10-17T18:45:22.641Z,33.83
2018-10-17T18:47:57.503Z,36.67
2018-10-17T18:50:33.066Z,32.57
2018-10-17T18:53:08.349Z,34.40
2018-10-17T18:55:43.131Z,43.60
2018-10-17T18:58:17.751Z,47.17
2018-10-17T19:00:52.739Z,46.95
2018-10-17T19:03:27.416Z,47.13
2018-10-17T19:06:02.485Z,50.93
2018-10-17T19:08:42.118Z,51.60
2018-10-17T19:11:16.839Z,56.43
2018-10-17T19:13:51.927Z,63.47
2018-10-17T19:16:39.518Z,59.20
2018-10-17T19:19:15.134Z,65.30
2018-10-17T19:21:49.686Z,60.57
2018-10-17T19:24:24.459Z,68.07
2018-10-17T19:26:59.533Z,67.00
2018-10-17T19:29:34.909Z,68.57
2018-10-17T19:32:09.460Z,76.00
2018-10-17T19:34:44.168Z,75.90
2018-10-17T19:37:18.724Z,77.45
2018-10-17T19:39:53.758Z,76.13
2018-10-17T19:42:28.389Z,78.30
2018-10-17T19:45:02.992Z,73.90
2018-10-17T19:47:37.445Z,78.83
2018-10-17T19:50:11.929Z,80.27
2018-10-17T19:52:47.418Z,81.45
2018-10-17T19:55:22.071Z,79.95
2018-10-17T19:57:56.694Z,80.97
2018-10-17T20:00:31.132Z,81.63
2018-10-17T20:03:06.306Z,77.13
2018-10-17T20:05:41.011Z,80.57
2018-10-17T20:08:15.664Z,83.00
2018-10-17T20:10:51.862Z,85.87
2018-10-17T20:13:26.771Z,83.77
2018-10-17T20:16:01.581Z,83.45
2018-10-17T20:18:36.380Z,92.60
2018-10-17T20:21:10.956Z,82.03
2018-10-17T20:23:45.735Z,87.20
2018-10-17T20:26:20.565Z,97.10
2018-10-17T20:28:55.127Z,90.25
2018-10-17T20:31:29.884Z,92.45
2018-10-17T20:34:04.465Z,88.17
2018-10-17T20:36:39.208Z,94.00
2018-10-17T20:39:15.084Z,88.53
2018-10-17T20:41:49.620Z,95.40
2018-10-17T20:44:24.122Z,96.07
2018-10-17T20:46:59.005Z,93.43
2018-10-17T20:49:33.837Z,90.37
2018-10-17T20:52:08.348Z,93.03
2018-10-17T20:54:43.071Z,90.77
2018-10-17T20:57:17.793Z,93.77
2018-10-17T20:59:52.688Z,88.47
2018-10-17T21:02:27.618Z,93.47
2018-10-17T21:05:02.312Z,84.05
2018-10-17T21:07:36.941Z,92.47
2018-10-17T21:10:11.560Z,91.17
2018-10-17T21:12:46.225Z,90.60
2018-10-17T21:15:20.985Z,91.03
2018-10-17T21:17:55.645Z,84.07
2018-10-17T21:20:30.664Z,88.70
2018-10-17T21:23:05.208Z,85.30
2018-10-17T21:25:40.337Z,85.40
2018-10-17T21:28:14.902Z,89.33
2018-10-17T21:30:50.025Z,87.30
2018-10-17T21:33:25.026Z,84.67
2018-10-17T21:35:59.578Z,85.87
2018-10-17T21:38:34.185Z,82.53
2018-10-17T21:41:09.066Z,84.60
2018-10-17T21:43:44.153Z,91.27
2018-10-17T21:46:18.781Z,79.10
2018-10-17T21:48:53.332Z,90.97
2018-10-17T21:51:27.890Z,88.40
2018-10-17T21:54:02.476Z,88.87
2018-10-17T21:56:37.132Z,90.60
2018-10-17T21:59:11.876Z,95.07
2018-10-17T22:01:46.605Z,92.73
2018-10-17T22:04:21.181Z,96.60
2018-10-17T22:06:55.649Z,93.50
2018-10-17T22:09:30.169Z,93.30
2018-10-17T22:12:04.707Z,96.63
2018-10-17T22:14:39.287Z,98.87
2018-10-17T22:17:13.985Z,93.63
2018-10-17T22:19:49.307Z,98.57
2018-10-17T22:22:23.879Z,97.70
2018-10-17T22:24:58.397Z,92.43
2018-10-17T22:27:33.320Z,92.87
2018-10-17T22:30:08.076Z,94.42
2018-10-17T22:32:42.613Z,97.53
2018-10-17T22:35:17.057Z,97.60
2018-10-17T22:37:52.537Z,94.77
2018-10-17T22:40:27.429Z,99.90
2018-10-17T22:43:02.209Z,104.07
2018-10-17T22:45:36.681Z,110.13
2018-10-17T22:48:11.441Z,108.77
2018-10-17T22:50:45.980Z,105.93
2018-10-17T22:53:20.916Z,107.97
2018-10-17T22:55:55.463Z,118.80
2018-10-17T22:58:30.217Z,113.77
2018-10-17T23:01:05.098Z,112.10
2018-10-17T23:03:39.636Z,117.60
2018-10-17T23:06:14.282Z,118.93
2018-10-17T23:08:49.377Z,120.20
2018-10-17T23:11:23.908Z,117.50
2018-10-17T23:13:58.626Z,111.63
2018-10-17T23:16:33.240Z,119.40
2018-10-17T23:19:08.632Z,121.77
2018-10-17T23:21:43.520Z,127.73
2018-10-17T23:24:18.090Z,115.20
2018-10-17T23:26:53.612Z,119.00
2018-10-17T23:29:28.230Z,119.72
2018-10-17T23:32:03.068Z,128.57
2018-10-17T23:34:37.778Z,129.10
2018-10-17T23:37:13.754Z,136.63
2018-10-17T23:39:59.376Z,124.00
2018-10-17T23:42:34.188Z,149.32
2018-10-17T23:45:08.929Z,130.77
2018-10-17T23:47:43.589Z,138.07
2018-10-17T23:50:18.671Z,145.68
2018-10-17T23:52:53.249Z,136.45
2018-10-17T23:55:27.827Z,132.60
2018-10-17T23:58:02.589Z,126.85
